sensor_id;sensor_type;location;lat;lon;timestamp;P1;durP1;ratioP1;P2;durP2;ratioP2
15198;SDS011;7700;48.654;9.070;2022-11-11T00:02:24;8.50;;;7.50;;
15198;SDS011;7700;48.654;9.070;2022-11-11T00:04:50;7.60;;;6.80;;
15198;SDS011;7700;48.654;9.070;2022-11-11T00:07:16;9.80;;;6.17;;
15198;SDS011;7700;48.654;9.070;2022-11-11T00:09:42;9.43;;;7.27;;
15198;SDS011;7700;48.654;9.070;2022-11-11T00:12:08;9.40;;;7.83;;
15198;SDS011;7700;48.654;9.070;2022-11-11T00:14:34;8.77;;;7.87;;
15198;SDS011;7700;48.654;9.070;2022-11-11T00:17:00;9.23;;;8.33;;
15198;SDS011;7700;48.654;9.070;2022-11-11T00:19:45;13.93;;;11.40;;
15198;SDS011;7700;48.654;9.070;2022-11-11T00:22:29;12.10;;;10.03;;
15198;SDS011;7700;48.654;9.070;2022-11-11T00:25:21;12.43;;;8.70;;
15198;SDS011;7700;48.654;9.070;2022-11-11T00:27:48;10.00;;;7.93;;
15198;SDS011;7700;48.654;9.070;2022-11-11T00:30:14;10.40;;;7.50;;
15198;SDS011;7700;48.654;9.070;2022-11-11T00:32:40;11.73;;;8.10;;
15198;SDS011;7700;48.654;9.070;2022-11-11T00:35:06;11.50;;;6.83;;
15198;SDS011;7700;48.654;9.070;2022-11-11T00:37:51;6.97;;;6.23;;
15198;SDS011;7700;48.654;9.070;2022-11-11T00:40:17;6.90;;;6.20;;
15198;SDS011;7700;48.654;9.070;2022-11-11T00:42:43;8.40;;;5.80;;
15198;SDS011;7700;48.654;9.070;2022-11-11T00:45:10;11.33;;;6.23;;
15198;SDS011;7700;48.654;9.070;2022-11-11T00:47:36;7.97;;;5.47;;
15198;SDS011;7700;48.654;9.070;2022-11-11T00:50:22;7.83;;;5.67;;
15198;SDS011;7700;48.654;9.070;2022-11-11T00:53:08;6.43;;;5.37;;
15198;SDS011;7700;48.654;9.070;2022-11-11T00:55:35;6.40;;;5.30;;
15198;SDS011;7700;48.654;9.070;2022-11-11T00:58:01;6.30;;;5.70;;
15198;SDS011;7700;48.654;9.070;2022-11-11T01:00:27;8.00;;;5.23;;
15198;SDS011;7700;48.654;9.070;2022-11-11T01:02:53;5.90;;;4.70;;
15198;SDS011;7700;48.654;9.070;2022-11-11T01:05:19;7.17;;;5.90;;
15198;SDS011;7700;48.654;9.070;2022-11-11T01:07:47;8.63;;;5.03;;
15198;SDS011;7700;48.654;9.070;2022-11-11T01:10:13;7.03;;;5.33;;
15198;SDS011;7700;48.654;9.070;2022-11-11T01:12:59;7.27;;;6.37;;
15198;SDS011;7700;48.654;9.070;2022-11-11T01:15:35;7.30;;;5.53;;
15198;SDS011;7700;48.654;9.070;2022-11-11T01:18:02;7.33;;;5.50;;
15198;SDS011;7700;48.654;9.070;2022-11-11T01:20:28;6.80;;;5.53;;
15198;SDS011;7700;48.654;9.070;2022-11-11T01:22:54;7.40;;;5.50;;
15198;SDS011;7700;48.654;9.070;2022-11-11T01:25:20;8.37;;;5.80;;
15198;SDS011;7700;48.654;9.070;2022-11-11T01:27:46;7.50;;;6.70;;
15198;SDS011;7700;48.654;9.070;2022-11-11T01:30:12;7.03;;;5.83;;
15198;SDS011;7700;48.654;9.070;2022-11-11T01:32:38;7.20;;;5.60;;
15198;SDS011;7700;48.654;9.070;2022-11-11T01:35:05;6.73;;;5.80;;
15198;SDS011;7700;48.654;9.070;2022-11-11T01:37:32;6.97;;;5.17;;
15198;SDS011;7700;48.654;9.070;2022-11-11T01:39:58;6.37;;;5.43;;
15198;SDS011;7700;48.654;9.070;2022-11-11T01:42:24;6.77;;;6.00;;
15198;SDS011;7700;48.654;9.070;2022-11-11T01:44:50;6.23;;;4.83;;
15198;SDS011;7700;48.654;9.070;2022-11-11T01:47:16;8.03;;;5.07;;
15198;SDS011;7700;48.654;9.070;2022-11-11T01:57:08;4.77;;;4.10;;
15198;SDS011;7700;48.654;9.070;2022-11-11T01:59:36;8.17;;;4.90;;
15198;SDS011;7700;48.654;9.070;2022-11-11T02:02:06;7.13;;;4.80;;
15198;SDS011;7700;48.654;9.070;2022-11-11T02:04:35;6.70;;;4.60;;
15198;SDS011;7700;48.654;9.070;2022-11-11T02:07:21;4.60;;;4.00;;
15198;SDS011;7700;48.654;9.070;2022-11-11T02:09:47;4.27;;;3.73;;
15198;SDS011;7700;48.654;9.070;2022-11-11T02:12:13;5.07;;;3.97;;
15198;SDS011;7700;48.654;9.070;2022-11-11T02:14:58;5.87;;;3.80;;
15198;SDS011;7700;48.654;9.070;2022-11-11T02:17:26;4.10;;;3.70;;
15198;SDS011;7700;48.654;9.070;2022-11-11T02:19:54;3.97;;;3.57;;
15198;SDS011;7700;48.654;9.070;2022-11-11T02:25:02;7.60;;;4.30;;
15198;SDS011;7700;48.654;9.070;2022-11-11T02:27:29;5.40;;;4.73;;
15198;SDS011;7700;48.654;9.070;2022-11-11T02:29:57;6.90;;;4.37;;
15198;SDS011;7700;48.654;9.070;2022-11-11T02:32:24;6.83;;;3.83;;
15198;SDS011;7700;48.654;9.070;2022-11-11T02:34:50;4.53;;;3.90;;
15198;SDS011;7700;48.654;9.070;2022-11-11T02:37:18;4.70;;;3.93;;
15198;SDS011;7700;48.654;9.070;2022-11-11T02:39:45;5.27;;;4.10;;
15198;SDS011;7700;48.654;9.070;2022-11-11T02:42:12;5.97;;;3.77;;
15198;SDS011;7700;48.654;9.070;2022-11-11T02:44:39;3.40;;;3.10;;
15198;SDS011;7700;48.654;9.070;2022-11-11T02:47:05;3.97;;;3.13;;
15198;SDS011;7700;48.654;9.070;2022-11-11T02:49:31;5.97;;;3.53;;
15198;SDS011;7700;48.654;9.070;2022-11-11T02:51:57;4.67;;;3.80;;
15198;SDS011;7700;48.654;9.070;2022-11-11T02:54:23;4.17;;;3.50;;
15198;SDS011;7700;48.654;9.070;2022-11-11T02:56:49;3.83;;;3.43;;
15198;SDS011;7700;48.654;9.070;2022-11-11T02:59:31;3.97;;;2.90;;
15198;SDS011;7700;48.654;9.070;2022-11-11T03:01:57;3.50;;;3.20;;
15198;SDS011;7700;48.654;9.070;2022-11-11T03:04:23;3.87;;;3.53;;
15198;SDS011;7700;48.654;9.070;2022-11-11T03:06:49;4.30;;;3.63;;
15198;SDS011;7700;48.654;9.070;2022-11-11T03:09:15;5.90;;;4.20;;
15198;SDS011;7700;48.654;9.070;2022-11-11T03:11:41;5.57;;;3.27;;
15198;SDS011;7700;48.654;9.070;2022-11-11T03:14:07;4.33;;;3.93;;
15198;SDS011;7700;48.654;9.070;2022-11-11T03:16:33;5.67;;;4.33;;
15198;SDS011;7700;48.654;9.070;2022-11-11T03:19:18;5.07;;;4.33;;
15198;SDS011;7700;48.654;9.070;2022-11-11T03:21:44;4.13;;;3.73;;
15198;SDS011;7700;48.654;9.070;2022-11-11T03:24:10;4.23;;;3.83;;
15198;SDS011;7700;48.654;9.070;2022-11-11T03:26:36;4.73;;;3.77;;
15198;SDS011;7700;48.654;9.070;2022-11-11T03:29:03;4.07;;;3.67;;
15198;SDS011;7700;48.654;9.070;2022-11-11T03:31:29;5.10;;;4.00;;
15198;SDS011;7700;48.654;9.070;2022-11-11T03:33:55;5.50;;;4.67;;
15198;SDS011;7700;48.654;9.070;2022-11-11T03:36:41;4.03;;;3.70;;
15198;SDS011;7700;48.654;9.070;2022-11-11T03:39:26;4.70;;;4.00;;
15198;SDS011;7700;48.654;9.070;2022-11-11T03:41:52;4.57;;;4.17;;
15198;SDS011;7700;48.654;9.070;2022-11-11T03:44:18;6.07;;;4.70;;
15198;SDS011;7700;48.654;9.070;2022-11-11T03:46:44;4.53;;;4.13;;
15198;SDS011;7700;48.654;9.070;2022-11-11T03:49:10;6.37;;;3.97;;
15198;SDS011;7700;48.654;9.070;2022-11-11T03:51:36;5.80;;;5.20;;
15198;SDS011;7700;48.654;9.070;2022-11-11T03:54:02;4.97;;;4.40;;
15198;SDS011;7700;48.654;9.070;2022-11-11T03:56:28;8.33;;;5.57;;
15198;SDS011;7700;48.654;9.070;2022-11-11T03:58:54;4.90;;;4.43;;
15198;SDS011;7700;48.654;9.070;2022-11-11T04:01:20;5.03;;;4.43;;
15198;SDS011;7700;48.654;9.070;2022-11-11T04:04:04;6.27;;;4.50;;
15198;SDS011;7700;48.654;9.070;2022-11-11T04:06:49;4.07;;;3.67;;
15198;SDS011;7700;48.654;9.070;2022-11-11T04:09:35;4.17;;;3.67;;
15198;SDS011;7700;48.654;9.070;2022-11-11T04:12:21;4.23;;;3.40;;
15198;SDS011;7700;48.654;9.070;2022-11-11T04:14:47;4.73;;;3.87;;
15198;SDS011;7700;48.654;9.070;2022-11-11T04:17:32;5.13;;;3.90;;
15198;SDS011;7700;48.654;9.070;2022-11-11T04:19:58;4.73;;;3.77;;
15198;SDS011;7700;48.654;9.070;2022-11-11T04:22:42;3.77;;;3.40;;
15198;SDS011;7700;48.654;9.070;2022-11-11T04:25:08;4.07;;;3.50;;
15198;SDS011;7700;48.654;9.070;2022-11-11T04:27:56;5.70;;;4.13;;
15198;SDS011;7700;48.654;9.070;2022-11-11T04:30:41;4.60;;;3.70;;
15198;SDS011;7700;48.654;9.070;2022-11-11T04:33:07;6.33;;;3.97;;
15198;SDS011;7700;48.654;9.070;2022-11-11T04:35:33;5.27;;;3.73;;
15198;SDS011;7700;48.654;9.070;2022-11-11T04:37:59;3.67;;;3.37;;
15198;SDS011;7700;48.654;9.070;2022-11-11T04:40:44;4.30;;;3.43;;
15198;SDS011;7700;48.654;9.070;2022-11-11T04:43:29;7.40;;;6.50;;
15198;SDS011;7700;48.654;9.070;2022-11-11T04:45:58;13.00;;;11.80;;
15198;SDS011;7700;48.654;9.070;2022-11-11T04:48:24;10.50;;;9.50;;
15198;SDS011;7700;48.654;9.070;2022-11-11T04:50:50;6.90;;;6.20;;
15198;SDS011;7700;48.654;9.070;2022-11-11T04:53:17;9.53;;;7.63;;
15198;SDS011;7700;48.654;9.070;2022-11-11T04:55:43;7.63;;;6.47;;
15198;SDS011;7700;48.654;9.070;2022-11-11T04:58:29;6.27;;;5.53;;
15198;SDS011;7700;48.654;9.070;2022-11-11T05:00:56;6.33;;;5.63;;
15198;SDS011;7700;48.654;9.070;2022-11-11T05:03:22;4.87;;;4.47;;
15198;SDS011;7700;48.654;9.070;2022-11-11T05:05:49;8.37;;;6.03;;
15198;SDS011;7700;48.654;9.070;2022-11-11T05:08:35;6.87;;;5.40;;
15198;SDS011;7700;48.654;9.070;2022-11-11T05:11:20;4.90;;;4.43;;
15198;SDS011;7700;48.654;9.070;2022-11-11T05:13:47;5.93;;;4.77;;
15198;SDS011;7700;48.654;9.070;2022-11-11T05:16:33;6.47;;;5.00;;
15198;SDS011;7700;48.654;9.070;2022-11-11T05:19:20;6.07;;;5.33;;
15198;SDS011;7700;48.654;9.070;2022-11-11T05:22:09;5.20;;;4.23;;
15198;SDS011;7700;48.654;9.070;2022-11-11T05:24:35;5.10;;;4.60;;
15198;SDS011;7700;48.654;9.070;2022-11-11T05:27:20;6.97;;;5.27;;
15198;SDS011;7700;48.654;9.070;2022-11-11T05:29:46;8.43;;;4.93;;
15198;SDS011;7700;48.654;9.070;2022-11-11T05:32:18;6.87;;;4.90;;
15198;SDS011;7700;48.654;9.070;2022-11-11T05:34:45;5.83;;;4.57;;
15198;SDS011;7700;48.654;9.070;2022-11-11T05:37:11;5.00;;;4.37;;
15198;SDS011;7700;48.654;9.070;2022-11-11T05:39:38;5.07;;;4.00;;
15198;SDS011;7700;48.654;9.070;2022-11-11T05:42:04;4.50;;;4.10;;
15198;SDS011;7700;48.654;9.070;2022-11-11T05:44:30;5.07;;;4.60;;
15198;SDS011;7700;48.654;9.070;2022-11-11T05:46:56;4.70;;;4.30;;
15198;SDS011;7700;48.654;9.070;2022-11-11T05:49:22;5.00;;;4.50;;
15198;SDS011;7700;48.654;9.070;2022-11-11T05:51:49;6.03;;;4.40;;
15198;SDS011;7700;48.654;9.070;2022-11-11T05:54:15;5.17;;;4.07;;
15198;SDS011;7700;48.654;9.070;2022-11-11T05:56:41;5.67;;;5.13;;
15198;SDS011;7700;48.654;9.070;2022-11-11T05:59:08;4.83;;;4.43;;
15198;SDS011;7700;48.654;9.070;2022-11-11T06:01:34;5.50;;;4.83;;
15198;SDS011;7700;48.654;9.070;2022-11-11T06:04:00;6.17;;;5.37;;
15198;SDS011;7700;48.654;9.070;2022-11-11T06:06:26;6.57;;;5.13;;
15198;SDS011;7700;48.654;9.070;2022-11-11T06:08:53;9.63;;;7.67;;
15198;SDS011;7700;48.654;9.070;2022-11-11T06:11:19;7.23;;;6.00;;
15198;SDS011;7700;48.654;9.070;2022-11-11T06:13:45;6.57;;;5.93;;
15198;SDS011;7700;48.654;9.070;2022-11-11T06:16:11;6.67;;;5.57;;
15198;SDS011;7700;48.654;9.070;2022-11-11T06:18:37;8.07;;;7.27;;
15198;SDS011;7700;48.654;9.070;2022-11-11T06:21:03;9.23;;;8.00;;
15198;SDS011;7700;48.654;9.070;2022-11-11T06:23:29;8.37;;;7.57;;
15198;SDS011;7700;48.654;9.070;2022-11-11T06:25:55;8.33;;;7.53;;
15198;SDS011;7700;48.654;9.070;2022-11-11T06:28:58;7.07;;;6.43;;
15198;SDS011;7700;48.654;9.070;2022-11-11T06:31:24;6.23;;;5.60;;
15198;SDS011;7700;48.654;9.070;2022-11-11T06:33:50;7.40;;;6.03;;
15198;SDS011;7700;48.654;9.070;2022-11-11T06:36:17;7.17;;;6.07;;
15198;SDS011;7700;48.654;9.070;2022-11-11T06:38:44;6.50;;;5.87;;
15198;SDS011;7700;48.654;9.070;2022-11-11T06:41:10;8.07;;;6.30;;
15198;SDS011;7700;48.654;9.070;2022-11-11T06:43:37;9.30;;;7.87;;
15198;SDS011;7700;48.654;9.070;2022-11-11T06:46:03;8.50;;;7.70;;
15198;SDS011;7700;48.654;9.070;2022-11-11T06:48:29;8.50;;;7.40;;
15198;SDS011;7700;48.654;9.070;2022-11-11T06:51:00;7.93;;;7.23;;
15198;SDS011;7700;48.654;9.070;2022-11-11T06:53:27;8.10;;;7.40;;
15198;SDS011;7700;48.654;9.070;2022-11-11T06:55:53;8.37;;;7.53;;
15198;SDS011;7700;48.654;9.070;2022-11-11T06:58:20;7.00;;;6.30;;
15198;SDS011;7700;48.654;9.070;2022-11-11T07:00:46;5.70;;;5.10;;
15198;SDS011;7700;48.654;9.070;2022-11-11T07:03:14;5.57;;;4.97;;
15198;SDS011;7700;48.654;9.070;2022-11-11T07:05:41;4.10;;;3.57;;
15198;SDS011;7700;48.654;9.070;2022-11-11T07:08:11;4.67;;;4.10;;
15198;SDS011;7700;48.654;9.070;2022-11-11T07:10:38;4.20;;;3.80;;
15198;SDS011;7700;48.654;9.070;2022-11-11T07:13:05;4.77;;;3.93;;
15198;SDS011;7700;48.654;9.070;2022-11-11T07:15:31;4.23;;;3.83;;
15198;SDS011;7700;48.654;9.070;2022-11-11T07:17:58;4.93;;;4.40;;
15198;SDS011;7700;48.654;9.070;2022-11-11T07:20:24;4.87;;;4.17;;
15198;SDS011;7700;48.654;9.070;2022-11-11T07:22:50;5.03;;;4.60;;
15198;SDS011;7700;48.654;9.070;2022-11-11T07:25:16;5.53;;;4.77;;
15198;SDS011;7700;48.654;9.070;2022-11-11T07:27:42;4.97;;;4.20;;
15198;SDS011;7700;48.654;9.070;2022-11-11T07:30:09;5.17;;;3.97;;
15198;SDS011;7700;48.654;9.070;2022-11-11T07:32:35;4.53;;;4.13;;
15198;SDS011;7700;48.654;9.070;2022-11-11T07:35:01;5.17;;;4.50;;
15198;SDS011;7700;48.654;9.070;2022-11-11T07:37:29;8.23;;;5.80;;
15198;SDS011;7700;48.654;9.070;2022-11-11T07:39:55;5.00;;;4.50;;
15198;SDS011;7700;48.654;9.070;2022-11-11T07:42:21;5.70;;;5.13;;
15198;SDS011;7700;48.654;9.070;2022-11-11T07:44:47;5.87;;;5.37;;
15198;SDS011;7700;48.654;9.070;2022-11-11T07:47:13;6.90;;;5.47;;
15198;SDS011;7700;48.654;9.070;2022-11-11T07:49:39;5.33;;;4.93;;
15198;SDS011;7700;48.654;9.070;2022-11-11T07:52:05;5.63;;;5.07;;
15198;SDS011;7700;48.654;9.070;2022-11-11T07:54:31;5.40;;;4.53;;
15198;SDS011;7700;48.654;9.070;2022-11-11T07:56:57;6.80;;;6.10;;
15198;SDS011;7700;48.654;9.070;2022-11-11T07:59:23;8.57;;;6.90;;
15198;SDS011;7700;48.654;9.070;2022-11-11T08:01:49;14.77;;;10.43;;
15198;SDS011;7700;48.654;9.070;2022-11-11T08:04:15;11.57;;;10.10;;
15198;SDS011;7700;48.654;9.070;2022-11-11T08:06:41;14.30;;;10.30;;
15198;SDS011;7700;48.654;9.070;2022-11-11T08:09:07;8.23;;;7.07;;
15198;SDS011;7700;48.654;9.070;2022-11-11T08:11:33;10.60;;;8.00;;
15198;SDS011;7700;48.654;9.070;2022-11-11T08:14:17;9.97;;;7.40;;
15198;SDS011;7700;48.654;9.070;2022-11-11T08:16:43;4.73;;;4.20;;
15198;SDS011;7700;48.654;9.070;2022-11-11T08:19:09;6.63;;;5.23;;
15198;SDS011;7700;48.654;9.070;2022-11-11T08:21:35;6.67;;;6.07;;
15198;SDS011;7700;48.654;9.070;2022-11-11T08:24:02;5.60;;;5.10;;
15198;SDS011;7700;48.654;9.070;2022-11-11T08:26:28;8.33;;;5.23;;
15198;SDS011;7700;48.654;9.070;2022-11-11T08:28:54;8.27;;;5.23;;
15198;SDS011;7700;48.654;9.070;2022-11-11T08:31:20;9.80;;;5.37;;
15198;SDS011;7700;48.654;9.070;2022-11-11T08:33:46;7.63;;;5.07;;
15198;SDS011;7700;48.654;9.070;2022-11-11T08:36:12;6.13;;;5.27;;
15198;SDS011;7700;48.654;9.070;2022-11-11T08:38:38;5.53;;;4.57;;
15198;SDS011;7700;48.654;9.070;2022-11-11T08:41:05;7.50;;;4.87;;
15198;SDS011;7700;48.654;9.070;2022-11-11T08:43:31;5.83;;;4.27;;
15198;SDS011;7700;48.654;9.070;2022-11-11T08:45:58;6.07;;;4.67;;
15198;SDS011;7700;48.654;9.070;2022-11-11T08:48:24;6.77;;;5.40;;
15198;SDS011;7700;48.654;9.070;2022-11-11T08:50:50;7.90;;;4.97;;
15198;SDS011;7700;48.654;9.070;2022-11-11T08:53:17;8.20;;;5.20;;
15198;SDS011;7700;48.654;9.070;2022-11-11T08:55:43;7.87;;;5.20;;
15198;SDS011;7700;48.654;9.070;2022-11-11T08:58:09;8.90;;;5.40;;
15198;SDS011;7700;48.654;9.070;2022-11-11T09:00:35;9.57;;;5.87;;
15198;SDS011;7700;48.654;9.070;2022-11-11T09:03:03;6.27;;;5.13;;
15198;SDS011;7700;48.654;9.070;2022-11-11T09:05:29;11.67;;;5.07;;
15198;SDS011;7700;48.654;9.070;2022-11-11T09:07:55;5.60;;;5.03;;
15198;SDS011;7700;48.654;9.070;2022-11-11T09:10:21;17.27;;;8.07;;
15198;SDS011;7700;48.654;9.070;2022-11-11T09:12:47;8.97;;;7.27;;
15198;SDS011;7700;48.654;9.070;2022-11-11T09:15:13;8.03;;;6.17;;
15198;SDS011;7700;48.654;9.070;2022-11-11T09:17:45;6.83;;;4.67;;
15198;SDS011;7700;48.654;9.070;2022-11-11T09:20:11;5.57;;;4.50;;
15198;SDS011;7700;48.654;9.070;2022-11-11T09:22:43;6.20;;;5.53;;
15198;SDS011;7700;48.654;9.070;2022-11-11T09:25:09;8.20;;;5.30;;
15198;SDS011;7700;48.654;9.070;2022-11-11T09:27:35;7.70;;;5.47;;
15198;SDS011;7700;48.654;9.070;2022-11-11T09:30:02;7.43;;;4.67;;
15198;SDS011;7700;48.654;9.070;2022-11-11T09:32:28;7.80;;;4.77;;
15198;SDS011;7700;48.654;9.070;2022-11-11T09:34:54;5.53;;;4.60;;
15198;SDS011;7700;48.654;9.070;2022-11-11T09:37:21;5.30;;;4.90;;
15198;SDS011;7700;48.654;9.070;2022-11-11T09:39:47;5.88;;;4.60;;
15198;SDS011;7700;48.654;9.070;2022-11-11T09:45:05;6.88;;;5.05;;
15198;SDS011;7700;48.654;9.070;2022-11-11T09:47:42;5.18;;;4.50;;
15198;SDS011;7700;48.654;9.070;2022-11-11T09:50:26;5.45;;;3.90;;
15198;SDS011;7700;48.654;9.070;2022-11-11T09:53:00;4.75;;;3.60;;
15198;SDS011;7700;48.654;9.070;2022-11-11T09:55:30;3.90;;;3.60;;
15198;SDS011;7700;48.654;9.070;2022-11-11T09:58:05;4.47;;;3.50;;
15198;SDS011;7700;48.654;9.070;2022-11-11T10:03:30;4.15;;;3.72;;
15198;SDS011;7700;48.654;9.070;2022-11-11T10:06:09;6.43;;;4.22;;
15198;SDS011;7700;48.654;9.070;2022-11-11T10:08:58;6.55;;;6.05;;
15198;SDS011;7700;48.654;9.070;2022-11-11T10:11:47;6.93;;;6.05;;
15198;SDS011;7700;48.654;9.070;2022-11-11T10:14:16;9.32;;;8.80;;
15198;SDS011;7700;48.654;9.070;2022-11-11T10:21:53;49.08;;;47.22;;
15198;SDS011;7700;48.654;9.070;2022-11-11T10:26:54;22.20;;;21.30;;
15198;SDS011;7700;48.654;9.070;2022-11-11T10:29:21;42.75;;;41.05;;
15198;SDS011;7700;48.654;9.070;2022-11-11T10:32:00;40.60;;;38.63;;
15198;SDS011;7700;48.654;9.070;2022-11-11T10:34:31;42.20;;;40.03;;
15198;SDS011;7700;48.654;9.070;2022-11-11T10:36:57;29.13;;;27.92;;
15198;SDS011;7700;48.654;9.070;2022-11-11T10:42:19;16.55;;;15.75;;
15198;SDS011;7700;48.654;9.070;2022-11-11T10:44:45;19.23;;;18.27;;
15198;SDS011;7700;48.654;9.070;2022-11-11T10:49:57;8.45;;;7.60;;
15198;SDS011;7700;48.654;9.070;2022-11-11T10:52:38;9.95;;;9.25;;
15198;SDS011;7700;48.654;9.070;2022-11-11T10:55:07;8.00;;;7.60;;
15198;SDS011;7700;48.654;9.070;2022-11-11T10:57:38;8.27;;;7.57;;
15198;SDS011;7700;48.654;9.070;2022-11-11T11:00:06;10.80;;;10.10;;
15198;SDS011;7700;48.654;9.070;2022-11-11T11:02:39;15.45;;;14.70;;
15198;SDS011;7700;48.654;9.070;2022-11-11T11:07:43;31.83;;;30.48;;
15198;SDS011;7700;48.654;9.070;2022-11-11T11:10:17;37.70;;;36.25;;
15198;SDS011;7700;48.654;9.070;2022-11-11T11:13:03;50.97;;;48.95;;
15198;SDS011;7700;48.654;9.070;2022-11-11T11:15:30;47.40;;;45.47;;
15198;SDS011;7700;48.654;9.070;2022-11-11T11:17:59;37.15;;;35.53;;
15198;SDS011;7700;48.654;9.070;2022-11-11T11:20:27;55.17;;;53.13;;
15198;SDS011;7700;48.654;9.070;2022-11-11T11:22:54;31.10;;;29.77;;
15198;SDS011;7700;48.654;9.070;2022-11-11T11:25:23;57.88;;;55.80;;
15198;SDS011;7700;48.654;9.070;2022-11-11T11:27:50;91.00;;;87.65;;
15198;SDS011;7700;48.654;9.070;2022-11-11T11:30:23;101.55;;;97.88;;
15198;SDS011;7700;48.654;9.070;2022-11-11T11:32:57;82.47;;;79.53;;
15198;SDS011;7700;48.654;9.070;2022-11-11T11:35:28;101.68;;;98.38;;
15198;SDS011;7700;48.654;9.070;2022-11-11T11:37:54;113.45;;;109.65;;
15198;SDS011;7700;48.654;9.070;2022-11-11T11:40:20;108.28;;;104.55;;
15198;SDS011;7700;48.654;9.070;2022-11-11T11:42:46;79.68;;;76.75;;
15198;SDS011;7700;48.654;9.070;2022-11-11T11:45:25;72.53;;;70.00;;
15198;SDS011;7700;48.654;9.070;2022-11-11T11:55:24;47.38;;;45.60;;
15198;SDS011;7700;48.654;9.070;2022-11-11T12:05:33;39.35;;;37.78;;
15198;SDS011;7700;48.654;9.070;2022-11-11T12:08:17;35.67;;;34.40;;
15198;SDS011;7700;48.654;9.070;2022-11-11T12:10:54;36.20;;;34.83;;
15198;SDS011;7700;48.654;9.070;2022-11-11T12:13:45;48.03;;;46.08;;
15198;SDS011;7700;48.654;9.070;2022-11-11T12:18:59;51.30;;;49.38;;
15198;SDS011;7700;48.654;9.070;2022-11-11T12:21:28;65.07;;;62.85;;
15198;SDS011;7700;48.654;9.070;2022-11-11T12:34:29;59.72;;;57.67;;
15198;SDS011;7700;48.654;9.070;2022-11-11T12:37:02;72.53;;;69.93;;
15198;SDS011;7700;48.654;9.070;2022-11-11T12:45:40;113.55;;;109.80;;
15198;SDS011;7700;48.654;9.070;2022-11-11T12:47:49;124.18;;;120.07;;
15198;SDS011;7700;48.654;9.070;2022-11-11T12:50:25;143.98;;;139.27;;
15198;SDS011;7700;48.654;9.070;2022-11-11T12:55:29;138.65;;;134.07;;
15198;SDS011;7700;48.654;9.070;2022-11-11T12:58:13;86.18;;;83.22;;
15198;SDS011;7700;48.654;9.070;2022-11-11T13:16:42;24.55;;;23.52;;
15198;SDS011;7700;48.654;9.070;2022-11-11T13:19:30;40.40;;;38.95;;
15198;SDS011;7700;48.654;9.070;2022-11-11T13:22:00;25.45;;;24.50;;
15198;SDS011;7700;48.654;9.070;2022-11-11T13:24:27;23.70;;;22.85;;
15198;SDS011;7700;48.654;9.070;2022-11-11T13:26:58;19.65;;;18.75;;
15198;SDS011;7700;48.654;9.070;2022-11-11T13:31:58;18.48;;;17.80;;
15198;SDS011;7700;48.654;9.070;2022-11-11T13:34:26;19.90;;;19.08;;
15198;SDS011;7700;48.654;9.070;2022-11-11T13:36:58;16.45;;;15.70;;
15198;SDS011;7700;48.654;9.070;2022-11-11T13:39:28;12.05;;;11.55;;
15198;SDS011;7700;48.654;9.070;2022-11-11T13:41:55;14.15;;;13.55;;
15198;SDS011;7700;48.654;9.070;2022-11-11T13:44:26;14.32;;;13.82;;
15198;SDS011;7700;48.654;9.070;2022-11-11T13:46:58;9.10;;;8.77;;
15198;SDS011;7700;48.654;9.070;2022-11-11T13:49:26;9.50;;;9.10;;
15198;SDS011;7700;48.654;9.070;2022-11-11T13:52:00;9.95;;;9.40;;
15198;SDS011;7700;48.654;9.070;2022-11-11T13:54:37;15.23;;;14.57;;
15198;SDS011;7700;48.654;9.070;2022-11-11T13:59:43;12.75;;;12.10;;
15198;SDS011;7700;48.654;9.070;2022-11-11T14:12:44;6.70;;;6.20;;
15198;SDS011;7700;48.654;9.070;2022-11-11T14:17:55;6.13;;;5.70;;
15198;SDS011;7700;48.654;9.070;2022-11-11T14:20:34;7.43;;;6.95;;
15198;SDS011;7700;48.654;9.070;2022-11-11T14:25:43;6.40;;;4.40;;
15198;SDS011;7700;48.654;9.070;2022-11-11T14:30:47;5.80;;;3.38;;
15198;SDS011;7700;48.654;9.070;2022-11-11T14:33:17;2.85;;;2.05;;
15198;SDS011;7700;48.654;9.070;2022-11-11T14:35:50;3.13;;;2.83;;
15198;SDS011;7700;48.654;9.070;2022-11-11T14:38:24;2.85;;;2.60;;
15198;SDS011;7700;48.654;9.070;2022-11-11T14:40:52;2.35;;;2.20;;
15198;SDS011;7700;48.654;9.070;2022-11-11T14:46:00;3.28;;;2.97;;
15198;SDS011;7700;48.654;9.070;2022-11-11T14:53:56;4.32;;;4.15;;
15198;SDS011;7700;48.654;9.070;2022-11-11T14:56:22;2.25;;;2.15;;
15198;SDS011;7700;48.654;9.070;2022-11-11T14:58:49;2.80;;;2.50;;
15198;SDS011;7700;48.654;9.070;2022-11-11T15:01:16;3.60;;;3.40;;
15198;SDS011;7700;48.654;9.070;2022-11-11T15:03:43;3.95;;;3.75;;
15198;SDS011;7700;48.654;9.070;2022-11-11T15:11:49;4.55;;;2.22;;
15198;SDS011;7700;48.654;9.070;2022-11-11T15:20:04;3.35;;;1.73;;
15198;SDS011;7700;48.654;9.070;2022-11-11T15:22:41;2.05;;;1.85;;
15198;SDS011;7700;48.654;9.070;2022-11-11T15:28:27;4.75;;;2.28;;
15198;SDS011;7700;48.654;9.070;2022-11-11T15:30:36;2.60;;;2.03;;
15198;SDS011;7700;48.654;9.070;2022-11-11T15:33:12;2.17;;;1.98;;
15198;SDS011;7700;48.654;9.070;2022-11-11T15:38:25;5.85;;;2.42;;
15198;SDS011;7700;48.654;9.070;2022-11-11T15:40:55;2.38;;;2.10;;
15198;SDS011;7700;48.654;9.070;2022-11-11T15:43:23;2.20;;;2.00;;
15198;SDS011;7700;48.654;9.070;2022-11-11T15:45:51;2.38;;;2.05;;
15198;SDS011;7700;48.654;9.070;2022-11-11T15:48:19;2.97;;;2.00;;
15198;SDS011;7700;48.654;9.070;2022-11-11T15:50:46;4.97;;;2.03;;
15198;SDS011;7700;48.654;9.070;2022-11-11T15:53:12;3.25;;;2.17;;
15198;SDS011;7700;48.654;9.070;2022-11-11T15:55:39;4.53;;;2.38;;
15198;SDS011;7700;48.654;9.070;2022-11-11T16:00:37;3.20;;;2.53;;
15198;SDS011;7700;48.654;9.070;2022-11-11T16:03:03;4.63;;;3.20;;
15198;SDS011;7700;48.654;9.070;2022-11-11T16:05:30;5.68;;;3.90;;
15198;SDS011;7700;48.654;9.070;2022-11-11T16:07:57;7.53;;;5.63;;
15198;SDS011;7700;48.654;9.070;2022-11-11T16:10:29;4.57;;;4.13;;
15198;SDS011;7700;48.654;9.070;2022-11-11T16:13:05;5.53;;;4.00;;
15198;SDS011;7700;48.654;9.070;2022-11-11T16:18:02;3.47;;;2.45;;
15198;SDS011;7700;48.654;9.070;2022-11-11T16:20:33;4.68;;;3.20;;
15198;SDS011;7700;48.654;9.070;2022-11-11T16:23:01;3.40;;;3.10;;
15198;SDS011;7700;48.654;9.070;2022-11-11T16:25:29;4.10;;;3.70;;
15198;SDS011;7700;48.654;9.070;2022-11-11T16:27:56;3.90;;;3.28;;
15198;SDS011;7700;48.654;9.070;2022-11-11T16:30:32;7.82;;;6.97;;
15198;SDS011;7700;48.654;9.070;2022-11-11T16:32:59;11.20;;;10.10;;
15198;SDS011;7700;48.654;9.070;2022-11-11T16:35:30;10.68;;;9.68;;
15198;SDS011;7700;48.654;9.070;2022-11-11T16:37:57;10.20;;;9.27;;
15198;SDS011;7700;48.654;9.070;2022-11-11T16:40:39;10.73;;;9.10;;
15198;SDS011;7700;48.654;9.070;2022-11-11T16:43:12;9.20;;;8.30;;
15198;SDS011;7700;48.654;9.070;2022-11-11T16:46:13;11.73;;;9.70;;
15198;SDS011;7700;48.654;9.070;2022-11-11T16:51:02;11.90;;;10.70;;
15198;SDS011;7700;48.654;9.070;2022-11-11T16:53:30;13.02;;;11.70;;
15198;SDS011;7700;48.654;9.070;2022-11-11T16:55:58;16.10;;;14.17;;
15198;SDS011;7700;48.654;9.070;2022-11-11T16:58:25;15.27;;;13.67;;
15198;SDS011;7700;48.654;9.070;2022-11-11T17:00:58;18.13;;;16.37;;
15198;SDS011;7700;48.654;9.070;2022-11-11T17:03:24;16.80;;;13.70;;
15198;SDS011;7700;48.654;9.070;2022-11-11T17:06:04;15.03;;;11.57;;
15198;SDS011;7700;48.654;9.070;2022-11-11T17:08:39;25.17;;;22.50;;
15198;SDS011;7700;48.654;9.070;2022-11-11T17:11:07;14.03;;;12.67;;
15198;SDS011;7700;48.654;9.070;2022-11-11T17:13:33;12.30;;;10.50;;
15198;SDS011;7700;48.654;9.070;2022-11-11T17:16:02;3.97;;;2.70;;
15198;SDS011;7700;48.654;9.070;2022-11-11T17:18:32;3.97;;;3.00;;
15198;SDS011;7700;48.654;9.070;2022-11-11T17:20:59;3.63;;;2.90;;
15198;SDS011;7700;48.654;9.070;2022-11-11T17:23:25;3.57;;;3.27;;
15198;SDS011;7700;48.654;9.070;2022-11-11T17:25:58;4.90;;;4.40;;
15198;SDS011;7700;48.654;9.070;2022-11-11T17:28:25;5.90;;;4.20;;
15198;SDS011;7700;48.654;9.070;2022-11-11T17:30:52;7.20;;;6.33;;
15198;SDS011;7700;48.654;9.070;2022-11-11T17:33:18;10.13;;;9.17;;